Weather reports worldwide

Advertisment
Bousson, Italy (16058): temperature & dewpoint: 29.06.2020 16:00:00 - 05.07.2020 16:00:00 (CEST)Bousson, Italy (16058): wind speed: 29.06.2020 16:00:00 - 05.07.2020 16:00:00 (CEST)Bousson, Italy (16058): wind direction: 29.06.2020 16:00:00 - 05.07.2020 16:00:00 (CEST)Bousson, Italy (16058): precipitation: 29.06.2020 16:00:00 - 05.07.2020 16:00:00 (CEST)
Date & Time tt [°C] td [°C] ff [km/h] ff [kn] dd rr [mm]
05.07.2020 16:00:00 - - - - - -
05.07.2020 15:00:00 24,3 9,4 13 7 WSW -
05.07.2020 14:00:00 23,9 6,6 13 7 WSW 0,0
05.07.2020 13:00:00 23,3 4,2 11 6 WSW -
05.07.2020 12:00:00 23,7 4,1 11 6 WSW -
05.07.2020 11:00:00 21,3 5,6 5 3 W -
05.07.2020 10:00:00 16,4 7,3 2 1 SSW -
05.07.2020 09:00:00 11,7 10,8 0 0 N -
05.07.2020 08:00:00 8,6 8,3 0 0 N 0,0
05.07.2020 07:00:00 6,7 6,1 4 2 ENE -
05.07.2020 06:00:00 6,7 5,9 2 1 E -
05.07.2020 05:00:00 7,1 6,2 2 1 E -
05.07.2020 04:00:00 7,5 6,6 2 1 E -
05.07.2020 03:00:00 7,9 7,0 2 1 E -
05.07.2020 02:00:00 8,5 7,3 2 1 E 0,0
05.07.2020 01:00:00 9,2 7,8 2 1 E -
05.07.2020 00:00:00 10,4 8,5 2 1 E -
04.07.2020 23:00:00 11,7 9,2 2 1 E -
04.07.2020 22:00:00 13,7 10,1 0 0 N -
04.07.2020 21:00:00 16,6 9,9 2 1 SW -
04.07.2020 20:00:00 21,2 9,1 5 3 SW 0,0
04.07.2020 19:00:00 21,6 13,9 9 5 W -
04.07.2020 18:00:00 21,9 14,2 9 5 WSW -
04.07.2020 17:00:00 22,3 13,8 11 6 WSW -
04.07.2020 16:00:00 22,5 10,9 11 6 WSW -
04.07.2020 15:00:00 21,9 8,7 13 7 WSW -
04.07.2020 14:00:00 21,8 8,3 9 5 W 0,0
04.07.2020 13:00:00 20,5 7,4 4 2 E -
04.07.2020 12:00:00 19,1 9,5 4 2 W -
04.07.2020 11:00:00 16,8 12,7 4 2 WSW -
04.07.2020 10:00:00 12,8 12,0 4 2 ENE -
04.07.2020 09:00:00 10,8 10,8 0 0 N -
04.07.2020 08:00:00 9,6 9,6 2 1 E -
04.07.2020 07:00:00 8,4 8,4 2 1 ENE -
04.07.2020 06:00:00 8,7 8,7 0 0 N -
04.07.2020 05:00:00 8,7 8,5 0 0 N -
04.07.2020 04:00:00 8,6 8,6 0 0 N -
04.07.2020 03:00:00 8,1 7,6 2 1 E -
04.07.2020 02:00:00 9,2 8,6 0 0 N -
04.07.2020 01:00:00 10,5 9,9 0 0 N -
04.07.2020 00:00:00 11,0 10,5 2 1 E -
03.07.2020 23:00:00 11,5 10,7 11 6 W -
03.07.2020 22:00:00 12,2 11,3 5 3 W -
03.07.2020 21:00:00 12,8 11,4 4 2 ENE -
03.07.2020 20:00:00 14,2 12,7 2 1 S -
03.07.2020 19:00:00 13,2 12,2 0 0 N -
03.07.2020 18:00:00 12,8 11,0 4 2 E -
03.07.2020 17:00:00 16,5 12,8 4 2 WSW -
03.07.2020 16:00:00 16,7 12,6 8 4 SW -
03.07.2020 15:00:00 18,5 12,2 4 2 SE -
03.07.2020 14:00:00 19,5 9,0 9 5 W 0,0
03.07.2020 13:00:00 19,7 9,8 13 7 W -
03.07.2020 12:00:00 19,8 9,3 13 7 WSW -
03.07.2020 11:00:00 17,9 10,0 5 3 WSW -
03.07.2020 10:00:00 14,6 10,8 2 1 SW -
03.07.2020 09:00:00 11,4 10,8 2 1 ENE -
03.07.2020 08:00:00 8,3 8,3 0 0 N 0,0
03.07.2020 07:00:00 7,0 6,7 2 1 ENE -
03.07.2020 06:00:00 7,1 7,0 0 0 N -
03.07.2020 05:00:00 7,4 7,1 2 1 E -
03.07.2020 04:00:00 7,9 7,6 2 1 ENE -
03.07.2020 03:00:00 8,5 8,0 0 0 N -
03.07.2020 02:00:00 9,0 8,2 0 0 N 0,0
03.07.2020 01:00:00 10,2 9,3 2 1 ESE -
03.07.2020 00:00:00 11,2 9,9 2 1 E -
02.07.2020 23:00:00 12,8 11,0 4 2 WSW -
02.07.2020 22:00:00 14,1 12,3 2 1 E -
02.07.2020 21:00:00 15,6 11,7 2 1 SE -
02.07.2020 20:00:00 17,8 12,2 8 4 SW -
02.07.2020 19:00:00 18,2 14,0 2 1 WNW -
02.07.2020 18:00:00 15,1 13,6 2 1 E -
02.07.2020 17:00:00 20,9 5,6 15 8 WSW -
02.07.2020 16:00:00 23,0 4,4 9 5 WSW -
02.07.2020 15:00:00 23,8 2,6 13 7 WSW -
02.07.2020 14:00:00 24,2 2,3 11 6 W 0,0
02.07.2020 13:00:00 23,4 2,2 9 5 WSW -
02.07.2020 12:00:00 22,4 3,9 9 5 WSW -
02.07.2020 11:00:00 19,6 14,3 4 2 SSW -
02.07.2020 10:00:00 15,4 15,3 2 1 SE -
02.07.2020 09:00:00 12,5 12,5 2 1 SW -
02.07.2020 08:00:00 10,4 10,4 0 0 N -
02.07.2020 07:00:00 8,7 8,7 0 0 N -
02.07.2020 06:00:00 8,8 8,6 2 1 E -
02.07.2020 05:00:00 9,2 9,0 0 0 N -
02.07.2020 04:00:00 9,5 9,0 2 1 ENE -
02.07.2020 03:00:00 10,0 9,4 0 0 N -
02.07.2020 02:00:00 10,8 10,0 0 0 N -
02.07.2020 01:00:00 11,9 11,1 2 1 E -
02.07.2020 00:00:00 13,3 12,5 0 0 N -
01.07.2020 23:00:00 14,0 13,3 5 3 ESE -
01.07.2020 22:00:00 14,7 13,5 4 2 E -
01.07.2020 21:00:00 15,6 14,4 4 2 E -
01.07.2020 20:00:00 18,2 16,8 2 1 SSE -
01.07.2020 19:00:00 19,4 16,9 5 3 W -
01.07.2020 18:00:00 20,6 18,1 13 7 WSW -
01.07.2020 17:00:00 21,5 17,6 9 5 WSW -
01.07.2020 16:00:00 23,1 18,6 15 8 WSW -
01.07.2020 15:00:00 23,1 13,5 9 5 WSW -
01.07.2020 14:00:00 22,1 13,6 8 4 WSW 0,0
01.07.2020 13:00:00 21,6 14,7 8 4 WSW -
01.07.2020 12:00:00 21,5 12,3 8 4 WSW -
01.07.2020 11:00:00 21,9 11,8 5 3 W -
01.07.2020 10:00:00 17,8 13,8 2 1 S -
01.07.2020 09:00:00 14,2 14,0 2 1 SSW -
01.07.2020 08:00:00 11,8 11,8 0 0 N 0,0
01.07.2020 07:00:00 10,3 10,1 2 1 ENE -
01.07.2020 06:00:00 10,4 9,9 0 0 N -
01.07.2020 05:00:00 10,9 10,3 2 1 E -
01.07.2020 04:00:00 11,6 11,1 2 1 E -
01.07.2020 03:00:00 12,5 11,9 2 1 E -
01.07.2020 02:00:00 13,5 12,4 2 1 ENE 0,0
01.07.2020 01:00:00 15,6 14,1 2 1 ENE -
01.07.2020 00:00:00 17,4 16,0 0 0 N -
30.06.2020 23:00:00 17,6 16,2 2 1 E -
30.06.2020 22:00:00 18,5 16,8 0 0 N -
30.06.2020 21:00:00 19,1 17,4 4 2 WSW -
30.06.2020 20:00:00 20,0 17,3 8 4 SW 0,0
30.06.2020 19:00:00 21,5 17,6 11 6 WSW -
30.06.2020 18:00:00 22,8 18,1 15 8 WSW -
30.06.2020 17:00:00 24,1 16,5 11 6 W -
30.06.2020 16:00:00 24,3 14,0 9 5 W -
30.06.2020 15:00:00 24,2 12,1 13 7 WSW -
30.06.2020 14:00:00 23,2 8,0 11 6 SW 0,0
30.06.2020 13:00:00 22,6 7,5 11 6 WSW -
30.06.2020 12:00:00 21,7 6,3 11 6 WSW -
30.06.2020 11:00:00 20,5 5,6 9 5 WSW -
30.06.2020 10:00:00 17,3 10,1 4 2 W -
30.06.2020 09:00:00 13,1 11,6 2 1 ENE -
30.06.2020 08:00:00 9,7 9,2 0 0 N 0,0
30.06.2020 07:00:00 8,0 7,5 2 1 E -
30.06.2020 06:00:00 7,8 7,2 0 0 N -
30.06.2020 05:00:00 8,3 7,5 2 1 E -
30.06.2020 04:00:00 8,7 7,8 2 1 E -
30.06.2020 03:00:00 9,0 7,8 2 1 E -
30.06.2020 02:00:00 9,7 8,1 2 1 ESE 0,0
30.06.2020 01:00:00 10,2 8,1 2 1 ENE -
30.06.2020 00:00:00 11,1 7,9 0 0 N -
29.06.2020 23:00:00 12,6 8,6 2 1 ESE -
29.06.2020 22:00:00 14,5 7,5 2 1 ENE -
29.06.2020 21:00:00 17,7 6,2 4 2 WSW -
29.06.2020 20:00:00 22,7 3,2 4 2 NE 0,0
29.06.2020 19:00:00 23,5 3,9 4 2 NW -
29.06.2020 18:00:00 24,2 1,7 5 3 SW -
29.06.2020 17:00:00 24,6 4,3 5 3 NNE -
29.06.2020 16:00:00 24,5 0,1 9 5 SSW -

tt = temperature
td = dewpoint
ff = wind speed
dd = wind direction
rr = precipitation

Next stations